sensor_id;sensor_type;location;lat;lon;timestamp;noise_LAeq;noise_LA_min;noise_LA_max;noise_LA01;noise_LA95
46584;Laerm;32309;48.858;8.252;2023-09-18T00:04:20;63.42;59.75;67.46;;
46584;Laerm;32309;48.858;8.252;2023-09-18T00:06:40;62.93;60.68;64.96;;
46584;Laerm;32309;48.858;8.252;2023-09-18T00:08:46;62.99;60.19;67.33;;
46584;Laerm;32309;48.858;8.252;2023-09-18T00:10:56;63.37;59.89;67.57;;
46584;Laerm;32309;48.858;8.252;2023-09-18T00:12:59;62.87;59.92;67.06;;
46584;Laerm;32309;48.858;8.252;2023-09-18T00:15:10;62.56;60.03;64.85;;
46584;Laerm;32309;48.858;8.252;2023-09-18T00:17:21;62.47;60.26;64.67;;
46584;Laerm;32309;48.858;8.252;2023-09-18T00:21:41;62.59;58.62;64.77;;
46584;Laerm;32309;48.858;8.252;2023-09-18T00:23:44;64.66;59.15;67.33;;
46584;Laerm;32309;48.858;8.252;2023-09-18T00:25:48;63.31;58.65;66.91;;
46584;Laerm;32309;48.858;8.252;2023-09-18T00:27:49;63.88;61.04;66.03;;
46584;Laerm;32309;48.858;8.252;2023-09-18T00:30:12;63.75;59.48;65.96;;
46584;Laerm;32309;48.858;8.252;2023-09-18T00:32:13;63.63;61.49;65.83;;
46584;Laerm;32309;48.858;8.252;2023-09-18T00:34:33;63.69;60.96;68.30;;
46584;Laerm;32309;48.858;8.252;2023-09-18T00:36:36;63.30;60.81;67.05;;
46584;Laerm;32309;48.858;8.252;2023-09-18T00:38:59;63.32;60.88;67.52;;
46584;Laerm;32309;48.858;8.252;2023-09-18T00:41:05;63.75;60.81;67.49;;
46584;Laerm;32309;48.858;8.252;2023-09-18T00:43:08;65.14;61.16;67.62;;
46584;Laerm;32309;48.858;8.252;2023-09-18T00:45:12;64.22;60.71;67.73;;
46584;Laerm;32309;48.858;8.252;2023-09-18T00:49:15;63.65;61.30;67.32;;
46584;Laerm;32309;48.858;8.252;2023-09-18T00:51:17;63.87;60.78;67.54;;
46584;Laerm;32309;48.858;8.252;2023-09-18T00:53:28;63.67;61.11;67.12;;
46584;Laerm;32309;48.858;8.252;2023-09-18T00:55:31;64.03;60.64;67.48;;
46584;Laerm;32309;48.858;8.252;2023-09-18T00:57:42;64.69;61.51;67.74;;
46584;Laerm;32309;48.858;8.252;2023-09-18T00:59:46;66.22;62.11;68.22;;
46584;Laerm;32309;48.858;8.252;2023-09-18T01:01:48;65.62;61.55;68.13;;
46584;Laerm;32309;48.858;8.252;2023-09-18T01:03:50;62.91;60.75;64.93;;
46584;Laerm;32309;48.858;8.252;2023-09-18T01:05:57;62.64;60.34;64.57;;
46584;Laerm;32309;48.858;8.252;2023-09-18T01:08:02;64.10;60.69;67.77;;
46584;Laerm;32309;48.858;8.252;2023-09-18T01:10:05;63.93;61.53;67.55;;
46584;Laerm;32309;48.858;8.252;2023-09-18T01:12:47;64.07;61.40;67.83;;
46584;Laerm;32309;48.858;8.252;2023-09-18T01:17:25;66.63;62.54;68.11;;
46584;Laerm;32309;48.858;8.252;2023-09-18T01:19:46;65.92;61.84;68.00;;
46584;Laerm;32309;48.858;8.252;2023-09-18T01:21:50;65.27;61.12;68.06;;
46584;Laerm;32309;48.858;8.252;2023-09-18T01:24:10;65.27;61.12;68.06;;
46584;Laerm;32309;48.858;8.252;2023-09-18T01:26:17;63.27;59.46;67.06;;
46584;Laerm;32309;48.858;8.252;2023-09-18T01:28:19;62.38;60.34;64.17;;
46584;Laerm;32309;48.858;8.252;2023-09-18T01:30:24;63.02;60.32;66.87;;
46584;Laerm;32309;48.858;8.252;2023-09-18T01:32:32;64.41;59.38;66.99;;
46584;Laerm;32309;48.858;8.252;2023-09-18T01:34:51;62.34;60.21;64.04;;
46584;Laerm;32309;48.858;8.252;2023-09-18T01:37:12;62.37;60.29;64.24;;
46584;Laerm;32309;48.858;8.252;2023-09-18T01:39:18;64.19;60.01;67.39;;
46584;Laerm;32309;48.858;8.252;2023-09-18T01:41:22;62.33;60.42;64.23;;
46584;Laerm;32309;48.858;8.252;2023-09-18T01:43:25;62.20;58.16;64.01;;
46584;Laerm;32309;48.858;8.252;2023-09-18T01:45:33;62.54;60.10;66.70;;
46584;Laerm;32309;48.858;8.252;2023-09-18T01:47:33;63.32;60.04;67.02;;
46584;Laerm;32309;48.858;8.252;2023-09-18T01:51:42;63.16;60.47;64.85;;
46584;Laerm;32309;48.858;8.252;2023-09-18T01:53:47;64.92;61.55;67.72;;
46584;Laerm;32309;48.858;8.252;2023-09-18T01:55:50;63.59;60.88;67.63;;
46584;Laerm;32309;48.858;8.252;2023-09-18T01:57:56;63.37;61.42;67.26;;
46584;Laerm;32309;48.858;8.252;2023-09-18T02:00:06;63.87;61.09;67.87;;
46584;Laerm;32309;48.858;8.252;2023-09-18T02:02:20;63.45;60.93;65.21;;
46584;Laerm;32309;48.858;8.252;2023-09-18T02:06:47;63.45;61.31;65.31;;
46584;Laerm;32309;48.858;8.252;2023-09-18T02:08:50;63.73;60.54;67.73;;
46584;Laerm;32309;48.858;8.252;2023-09-18T02:10:51;63.23;60.23;67.75;;
46584;Laerm;32309;48.858;8.252;2023-09-18T02:12:56;63.01;60.07;65.13;;
46584;Laerm;32309;48.858;8.252;2023-09-18T02:15:02;65.36;61.08;68.56;;
46584;Laerm;32309;48.858;8.252;2023-09-18T02:17:06;62.37;58.70;66.15;;
46584;Laerm;32309;48.858;8.252;2023-09-18T02:19:08;62.39;59.06;64.17;;
46584;Laerm;32309;48.858;8.252;2023-09-18T02:21:20;62.40;60.17;64.02;;
46584;Laerm;32309;48.858;8.252;2023-09-18T02:23:31;64.08;60.25;67.26;;
46584;Laerm;32309;48.858;8.252;2023-09-18T02:25:34;62.12;59.18;63.71;;
46584;Laerm;32309;48.858;8.252;2023-09-18T02:27:37;62.64;60.65;66.99;;
46584;Laerm;32309;48.858;8.252;2023-09-18T02:31:53;61.98;58.39;64.22;;
46584;Laerm;32309;48.858;8.252;2023-09-18T02:33:56;60.02;57.57;62.53;;
46584;Laerm;32309;48.858;8.252;2023-09-18T02:35:56;60.21;57.40;64.43;;
46584;Laerm;32309;48.858;8.252;2023-09-18T02:39:59;64.49;60.00;67.05;;
46584;Laerm;32309;48.858;8.252;2023-09-18T02:42:00;63.12;59.96;67.02;;
46584;Laerm;32309;48.858;8.252;2023-09-18T02:44:00;62.70;59.67;66.77;;
46584;Laerm;32309;48.858;8.252;2023-09-18T02:46:01;63.65;59.59;66.73;;
46584;Laerm;32309;48.858;8.252;2023-09-18T02:48:01;63.25;52.23;67.36;;
46584;Laerm;32309;48.858;8.252;2023-09-18T02:50:01;62.97;60.05;67.28;;
46584;Laerm;32309;48.858;8.252;2023-09-18T02:52:04;63.01;60.61;67.13;;
46584;Laerm;32309;48.858;8.252;2023-09-18T02:54:05;62.73;60.02;64.61;;
46584;Laerm;32309;48.858;8.252;2023-09-18T02:56:05;62.59;59.89;64.92;;
46584;Laerm;32309;48.858;8.252;2023-09-18T02:58:05;63.05;60.56;67.28;;
46584;Laerm;32309;48.858;8.252;2023-09-18T03:00:06;63.85;52.05;67.61;;
46584;Laerm;32309;48.858;8.252;2023-09-18T03:02:06;62.65;60.26;64.77;;
46584;Laerm;32309;48.858;8.252;2023-09-18T03:04:06;63.21;59.21;66.77;;
46584;Laerm;32309;48.858;8.252;2023-09-18T03:06:07;61.98;59.57;66.40;;
46584;Laerm;32309;48.858;8.252;2023-09-18T03:08:08;63.92;59.72;67.22;;
46584;Laerm;32309;48.858;8.252;2023-09-18T03:10:09;63.57;59.26;67.02;;
46584;Laerm;32309;48.858;8.252;2023-09-18T03:12:13;62.50;59.58;66.54;;
46584;Laerm;32309;48.858;8.252;2023-09-18T03:14:13;63.24;60.21;66.87;;
46584;Laerm;32309;48.858;8.252;2023-09-18T03:18:14;63.65;59.98;67.42;;
46584;Laerm;32309;48.858;8.252;2023-09-18T03:20:14;63.87;60.67;67.40;;
46584;Laerm;32309;48.858;8.252;2023-09-18T03:22:15;63.21;61.09;67.62;;
46584;Laerm;32309;48.858;8.252;2023-09-18T03:24:15;63.02;60.97;65.05;;
46584;Laerm;32309;48.858;8.252;2023-09-18T03:28:16;61.79;58.14;63.79;;
46584;Laerm;32309;48.858;8.252;2023-09-18T03:30:16;63.60;59.50;67.22;;
46584;Laerm;32309;48.858;8.252;2023-09-18T03:32:16;62.07;59.63;66.70;;
46584;Laerm;32309;48.858;8.252;2023-09-18T03:34:16;61.81;59.21;64.07;;
46584;Laerm;32309;48.858;8.252;2023-09-18T03:36:17;61.98;59.14;64.02;;
46584;Laerm;32309;48.858;8.252;2023-09-18T05:31:14;63.83;58.85;66.76;;
46584;Laerm;32309;48.858;8.252;2023-09-18T05:33:54;64.16;58.68;66.80;;
46584;Laerm;32309;48.858;8.252;2023-09-18T05:47:37;62.31;58.87;66.78;;
46584;Laerm;32309;48.858;8.252;2023-09-18T05:54:19;60.91;58.19;63.40;;
46584;Laerm;32309;48.858;8.252;2023-09-18T05:56:47;61.30;58.08;65.80;;
46584;Laerm;32309;48.858;8.252;2023-09-18T05:58:48;62.89;57.71;66.16;;
46584;Laerm;32309;48.858;8.252;2023-09-18T06:00:51;63.71;58.41;66.43;;
46584;Laerm;32309;48.858;8.252;2023-09-18T06:02:51;61.18;58.22;66.08;;
46584;Laerm;32309;48.858;8.252;2023-09-18T06:04:56;60.55;57.97;62.82;;
46584;Laerm;32309;48.858;8.252;2023-09-18T06:07:01;62.41;57.70;65.94;;
46584;Laerm;32309;48.858;8.252;2023-09-18T06:09:01;63.39;58.39;66.29;;
46584;Laerm;32309;48.858;8.252;2023-09-18T06:11:02;60.61;57.94;62.78;;
46584;Laerm;32309;48.858;8.252;2023-09-18T06:13:02;60.51;56.60;62.95;;
46584;Laerm;32309;48.858;8.252;2023-09-18T06:15:09;61.86;58.34;65.84;;
46584;Laerm;32309;48.858;8.252;2023-09-18T06:17:12;61.54;57.96;65.86;;
46584;Laerm;32309;48.858;8.252;2023-09-18T06:19:18;60.97;57.94;65.69;;
46584;Laerm;32309;48.858;8.252;2023-09-18T06:21:18;61.35;56.97;66.08;;
46584;Laerm;32309;48.858;8.252;2023-09-18T06:23:19;63.60;58.88;65.85;;
46584;Laerm;32309;48.858;8.252;2023-09-18T06:25:21;62.77;57.50;66.16;;
46584;Laerm;32309;48.858;8.252;2023-09-18T06:27:22;62.26;57.82;66.28;;
46584;Laerm;32309;48.858;8.252;2023-09-18T06:31:23;63.62;58.14;66.38;;
46584;Laerm;32309;48.858;8.252;2023-09-18T06:33:23;63.55;58.53;66.19;;
46584;Laerm;32309;48.858;8.252;2023-09-18T06:35:24;62.61;58.29;66.19;;
46584;Laerm;32309;48.858;8.252;2023-09-18T06:37:24;61.53;57.84;66.18;;
46584;Laerm;32309;48.858;8.252;2023-09-18T06:39:25;63.11;58.45;66.51;;
46584;Laerm;32309;48.858;8.252;2023-09-18T06:41:26;63.09;58.57;66.31;;
46584;Laerm;32309;48.858;8.252;2023-09-18T06:43:26;61.34;58.29;65.69;;
46584;Laerm;32309;48.858;8.252;2023-09-18T06:45:26;62.39;57.88;65.98;;
46584;Laerm;32309;48.858;8.252;2023-09-18T06:47:27;61.65;58.48;66.09;;
46584;Laerm;32309;48.858;8.252;2023-09-18T06:49:28;61.22;56.82;66.02;;
46584;Laerm;32309;48.858;8.252;2023-09-18T06:51:28;62.86;58.06;66.20;;
46584;Laerm;32309;48.858;8.252;2023-09-18T06:53:28;63.86;58.26;66.22;;
46584;Laerm;32309;48.858;8.252;2023-09-18T06:55:29;62.19;57.43;66.09;;
46584;Laerm;32309;48.858;8.252;2023-09-18T06:59:29;62.41;57.27;66.15;;
46584;Laerm;32309;48.858;8.252;2023-09-18T07:01:30;61.04;52.00;65.58;;
46584;Laerm;32309;48.858;8.252;2023-09-18T07:03:31;62.32;58.14;66.12;;
46584;Laerm;32309;48.858;8.252;2023-09-18T07:07:33;64.47;62.34;66.11;;
46584;Laerm;32309;48.858;8.252;2023-09-18T07:09:33;63.38;58.11;66.51;;
46584;Laerm;32309;48.858;8.252;2023-09-18T07:11:34;62.84;58.35;66.61;;
46584;Laerm;32309;48.858;8.252;2023-09-18T07:13:34;62.38;58.25;66.12;;
46584;Laerm;32309;48.858;8.252;2023-09-18T07:17:35;62.38;59.35;66.62;;
46584;Laerm;32309;48.858;8.252;2023-09-18T07:19:36;64.66;59.04;66.83;;
46584;Laerm;32309;48.858;8.252;2023-09-18T07:21:37;64.32;58.14;66.92;;
46584;Laerm;32309;48.858;8.252;2023-09-18T07:23:39;64.00;60.17;67.51;;
46584;Laerm;32309;48.858;8.252;2023-09-18T07:27:43;61.96;57.96;66.06;;
46584;Laerm;32309;48.858;8.252;2023-09-18T07:31:45;61.71;58.71;63.81;;
46584;Laerm;32309;48.858;8.252;2023-09-18T07:33:45;64.72;60.54;67.30;;
46584;Laerm;32309;48.858;8.252;2023-09-18T07:35:50;63.69;60.37;67.31;;
46584;Laerm;32309;48.858;8.252;2023-09-18T07:37:53;63.11;60.12;67.18;;
46584;Laerm;32309;48.858;8.252;2023-09-18T07:39:54;62.78;59.78;64.95;;
46584;Laerm;32309;48.858;8.252;2023-09-18T07:41:54;62.68;60.01;64.79;;
46584;Laerm;32309;48.858;8.252;2023-09-18T07:43:56;64.94;60.29;67.48;;
46584;Laerm;32309;48.858;8.252;2023-09-18T07:45:58;64.15;60.91;67.18;;
46584;Laerm;32309;48.858;8.252;2023-09-18T07:47:59;63.56;60.40;67.25;;
46584;Laerm;32309;48.858;8.252;2023-09-18T07:50:00;62.64;59.44;65.16;;
46584;Laerm;32309;48.858;8.252;2023-09-18T07:52:00;62.39;59.68;64.89;;
46584;Laerm;32309;48.858;8.252;2023-09-18T07:54:00;63.47;59.69;66.93;;
46584;Laerm;32309;48.858;8.252;2023-09-18T07:56:01;63.65;60.16;67.21;;
46584;Laerm;32309;48.858;8.252;2023-09-18T07:58:02;62.81;60.39;65.19;;
46584;Laerm;32309;48.858;8.252;2023-09-18T08:00:04;62.96;60.88;67.21;;
46584;Laerm;32309;48.858;8.252;2023-09-18T08:02:08;62.79;58.79;64.68;;
46584;Laerm;32309;48.858;8.252;2023-09-18T08:04:09;63.72;59.53;67.28;;
46584;Laerm;32309;48.858;8.252;2023-09-18T08:06:10;63.72;59.53;67.28;;
46584;Laerm;32309;48.858;8.252;2023-09-18T08:08:11;62.39;58.66;66.44;;
46584;Laerm;32309;48.858;8.252;2023-09-18T08:10:13;62.09;59.97;64.28;;
46584;Laerm;32309;48.858;8.252;2023-09-18T08:12:13;62.01;59.31;65.35;;
46584;Laerm;32309;48.858;8.252;2023-09-18T08:14:13;63.17;59.67;66.62;;
46584;Laerm;32309;48.858;8.252;2023-09-18T08:16:14;64.22;59.48;67.12;;
46584;Laerm;32309;48.858;8.252;2023-09-18T08:18:14;61.65;59.26;64.00;;
46584;Laerm;32309;48.858;8.252;2023-09-18T08:20:15;62.55;58.04;66.69;;
46584;Laerm;32309;48.858;8.252;2023-09-18T08:22:15;62.11;58.70;66.70;;
46584;Laerm;32309;48.858;8.252;2023-09-18T08:24:16;63.15;59.36;66.91;;
46584;Laerm;32309;48.858;8.252;2023-09-18T08:26:17;61.64;59.37;63.54;;
46584;Laerm;32309;48.858;8.252;2023-09-18T08:28:18;61.64;59.37;63.54;;
46584;Laerm;32309;48.858;8.252;2023-09-18T08:30:18;61.80;59.57;63.91;;
46584;Laerm;32309;48.858;8.252;2023-09-18T08:32:21;62.19;58.61;64.58;;
46584;Laerm;32309;48.858;8.252;2023-09-18T08:36:21;63.58;60.15;67.19;;
46584;Laerm;32309;48.858;8.252;2023-09-18T08:38:22;62.29;59.90;64.41;;
46584;Laerm;32309;48.858;8.252;2023-09-18T08:40:22;63.15;60.62;66.62;;
46584;Laerm;32309;48.858;8.252;2023-09-18T08:42:23;63.03;57.79;66.73;;
46584;Laerm;32309;48.858;8.252;2023-09-18T08:44:26;62.49;59.15;66.71;;
46584;Laerm;32309;48.858;8.252;2023-09-18T08:46:27;62.12;60.15;64.20;;
46584;Laerm;32309;48.858;8.252;2023-09-18T08:48:29;62.14;59.74;64.15;;
46584;Laerm;32309;48.858;8.252;2023-09-18T08:50:35;62.64;60.00;67.14;;
46584;Laerm;32309;48.858;8.252;2023-09-18T08:52:36;63.40;60.50;67.05;;
46584;Laerm;32309;48.858;8.252;2023-09-18T08:54:37;63.72;60.66;67.11;;
46584;Laerm;32309;48.858;8.252;2023-09-18T08:56:46;63.28;60.19;66.84;;
46584;Laerm;32309;48.858;8.252;2023-09-18T08:58:46;62.29;59.38;64.17;;
46584;Laerm;32309;48.858;8.252;2023-09-18T09:00:47;61.49;59.13;63.14;;
46584;Laerm;32309;48.858;8.252;2023-09-18T09:02:47;62.31;59.71;64.25;;
46584;Laerm;32309;48.858;8.252;2023-09-18T09:04:50;62.09;58.44;64.42;;
46584;Laerm;32309;48.858;8.252;2023-09-18T09:06:51;61.90;59.58;66.03;;
46584;Laerm;32309;48.858;8.252;2023-09-18T09:08:51;61.56;59.41;63.22;;
46584;Laerm;32309;48.858;8.252;2023-09-18T09:10:52;61.49;59.28;63.60;;
46584;Laerm;32309;48.858;8.252;2023-09-18T09:12:59;61.40;59.31;63.92;;
46584;Laerm;32309;48.858;8.252;2023-09-18T09:15:04;61.36;59.10;63.33;;
46584;Laerm;32309;48.858;8.252;2023-09-18T09:19:06;61.16;58.38;62.85;;
46584;Laerm;32309;48.858;8.252;2023-09-18T09:21:07;61.50;59.70;63.32;;
46584;Laerm;32309;48.858;8.252;2023-09-18T09:23:09;61.45;58.92;63.26;;
46584;Laerm;32309;48.858;8.252;2023-09-18T09:25:26;62.17;58.91;65.99;;
46584;Laerm;32309;48.858;8.252;2023-09-18T09:27:26;61.52;59.31;63.26;;
46584;Laerm;32309;48.858;8.252;2023-09-18T09:29:27;61.85;59.44;65.81;;
46584;Laerm;32309;48.858;8.252;2023-09-18T09:31:29;61.88;58.97;65.90;;
46584;Laerm;32309;48.858;8.252;2023-09-18T09:33:31;61.50;58.98;63.28;;
46584;Laerm;32309;48.858;8.252;2023-09-18T09:35:35;62.89;59.23;66.12;;
46584;Laerm;32309;48.858;8.252;2023-09-18T09:37:35;61.08;58.67;62.92;;
46584;Laerm;32309;48.858;8.252;2023-09-18T09:39:49;61.05;58.81;65.29;;
46584;Laerm;32309;48.858;8.252;2023-09-18T09:41:51;62.98;59.01;65.92;;
46584;Laerm;32309;48.858;8.252;2023-09-18T09:43:51;62.13;60.09;66.04;;
46584;Laerm;32309;48.858;8.252;2023-09-18T09:46:01;62.06;60.08;65.81;;
46584;Laerm;32309;48.858;8.252;2023-09-18T09:48:06;61.83;59.48;63.78;;
46584;Laerm;32309;48.858;8.252;2023-09-18T09:50:12;61.98;59.39;64.34;;
46584;Laerm;32309;48.858;8.252;2023-09-18T09:52:19;62.33;59.39;66.93;;
46584;Laerm;32309;48.858;8.252;2023-09-18T09:54:32;62.27;59.35;66.25;;
46584;Laerm;32309;48.858;8.252;2023-09-18T09:56:49;62.83;60.00;65.70;;
46584;Laerm;32309;48.858;8.252;2023-09-18T09:59:04;63.10;59.34;67.22;;
46584;Laerm;32309;48.858;8.252;2023-09-18T10:01:08;63.44;60.59;67.19;;
46584;Laerm;32309;48.858;8.252;2023-09-18T10:03:13;62.85;59.92;65.00;;
46584;Laerm;32309;48.858;8.252;2023-09-18T10:05:16;63.18;60.68;65.57;;
46584;Laerm;32309;48.858;8.252;2023-09-18T10:07:20;63.36;60.83;67.25;;
46584;Laerm;32309;48.858;8.252;2023-09-18T10:09:21;63.33;61.47;66.01;;
46584;Laerm;32309;48.858;8.252;2023-09-18T10:11:24;63.56;60.58;65.32;;
46584;Laerm;32309;48.858;8.252;2023-09-18T10:13:33;64.32;60.26;67.36;;
46584;Laerm;32309;48.858;8.252;2023-09-18T10:15:46;63.81;61.61;67.68;;
46584;Laerm;32309;48.858;8.252;2023-09-18T10:17:59;64.66;61.09;67.73;;
46584;Laerm;32309;48.858;8.252;2023-09-18T10:20:12;63.07;60.99;65.01;;
46584;Laerm;32309;48.858;8.252;2023-09-18T10:22:54;64.79;61.36;67.94;;
46584;Laerm;32309;48.858;8.252;2023-09-18T10:25:00;63.66;61.24;67.57;;
46584;Laerm;32309;48.858;8.252;2023-09-18T10:27:04;63.96;61.10;67.62;;
46584;Laerm;32309;48.858;8.252;2023-09-18T10:29:07;65.52;60.31;68.10;;
46584;Laerm;32309;48.858;8.252;2023-09-18T10:31:12;62.61;60.51;64.59;;
46584;Laerm;32309;48.858;8.252;2023-09-18T10:33:13;63.02;60.62;65.10;;
46584;Laerm;32309;48.858;8.252;2023-09-18T10:35:14;63.20;60.28;67.19;;
46584;Laerm;32309;48.858;8.252;2023-09-18T10:37:15;64.19;60.13;67.84;;
46584;Laerm;32309;48.858;8.252;2023-09-18T10:39:18;63.65;61.22;65.47;;
46584;Laerm;32309;48.858;8.252;2023-09-18T10:41:26;64.12;60.91;67.65;;
46584;Laerm;32309;48.858;8.252;2023-09-18T10:43:26;63.23;60.59;67.49;;
46584;Laerm;32309;48.858;8.252;2023-09-18T10:45:27;62.74;60.67;67.10;;
46584;Laerm;32309;48.858;8.252;2023-09-18T10:47:30;64.06;60.01;67.44;;
46584;Laerm;32309;48.858;8.252;2023-09-18T10:49:34;61.47;58.35;64.65;;
46584;Laerm;32309;48.858;8.252;2023-09-18T11:18:32;62.61;60.15;65.10;;
46584;Laerm;32309;48.858;8.252;2023-09-18T11:20:32;63.22;60.21;65.36;;
46584;Laerm;32309;48.858;8.252;2023-09-18T11:24:33;62.72;59.57;66.25;;
46584;Laerm;32309;48.858;8.252;2023-09-18T11:26:40;63.74;60.11;67.59;;
46584;Laerm;32309;48.858;8.252;2023-09-18T11:28:41;63.24;60.79;65.66;;
46584;Laerm;32309;48.858;8.252;2023-09-18T11:31:09;62.73;60.21;64.62;;
46584;Laerm;32309;48.858;8.252;2023-09-18T11:33:11;62.91;60.81;64.82;;
46584;Laerm;32309;48.858;8.252;2023-09-18T11:37:20;63.84;61.76;65.93;;
46584;Laerm;32309;48.858;8.252;2023-09-18T11:39:39;63.55;61.58;65.56;;
46584;Laerm;32309;48.858;8.252;2023-09-18T11:41:40;63.10;59.37;67.38;;
46584;Laerm;32309;48.858;8.252;2023-09-18T11:43:41;62.64;60.60;64.92;;
46584;Laerm;32309;48.858;8.252;2023-09-18T11:45:42;63.02;60.60;65.48;;
46584;Laerm;32309;48.858;8.252;2023-09-18T11:49:47;64.19;60.37;67.70;;
46584;Laerm;32309;48.858;8.252;2023-09-18T11:51:54;63.29;60.65;67.24;;
46584;Laerm;32309;48.858;8.252;2023-09-18T11:53:56;63.46;60.99;67.31;;
46584;Laerm;32309;48.858;8.252;2023-09-18T11:57:58;64.55;60.43;67.57;;
46584;Laerm;32309;48.858;8.252;2023-09-18T12:00:01;62.83;60.33;66.45;;
46584;Laerm;32309;48.858;8.252;2023-09-18T12:02:17;62.74;60.45;66.56;;
46584;Laerm;32309;48.858;8.252;2023-09-18T12:04:28;62.87;60.53;65.24;;
46584;Laerm;32309;48.858;8.252;2023-09-18T12:06:29;62.86;60.73;64.92;;
46584;Laerm;32309;48.858;8.252;2023-09-18T12:08:29;63.73;61.16;65.56;;
46584;Laerm;32309;48.858;8.252;2023-09-18T12:30:02;63.29;60.79;67.10;;
46584;Laerm;32309;48.858;8.252;2023-09-18T12:32:09;63.21;60.54;67.48;;
46584;Laerm;32309;48.858;8.252;2023-09-18T12:36:19;62.52;60.49;64.60;;
46584;Laerm;32309;48.858;8.252;2023-09-18T12:38:20;62.76;60.60;64.67;;
46584;Laerm;32309;48.858;8.252;2023-09-18T12:40:29;62.93;60.54;65.29;;
46584;Laerm;32309;48.858;8.252;2023-09-18T12:42:30;63.65;60.54;67.41;;
46584;Laerm;32309;48.858;8.252;2023-09-18T12:44:30;63.89;60.52;68.05;;
46584;Laerm;32309;48.858;8.252;2023-09-18T12:46:31;62.92;60.66;64.81;;
46584;Laerm;32309;48.858;8.252;2023-09-18T12:48:39;63.63;60.84;67.60;;
46584;Laerm;32309;48.858;8.252;2023-09-18T12:50:45;64.08;62.08;65.81;;
46584;Laerm;32309;48.858;8.252;2023-09-18T12:52:45;65.77;61.89;68.28;;
46584;Laerm;32309;48.858;8.252;2023-09-18T12:54:46;64.27;61.22;68.46;;
46584;Laerm;32309;48.858;8.252;2023-09-18T12:56:53;64.15;61.82;65.92;;
46584;Laerm;32309;48.858;8.252;2023-09-18T12:58:57;64.79;61.90;68.48;;
46584;Laerm;32309;48.858;8.252;2023-09-18T13:00:58;64.62;61.97;68.02;;
46584;Laerm;32309;48.858;8.252;2023-09-18T13:02:58;66.15;61.87;68.78;;
46584;Laerm;32309;48.858;8.252;2023-09-18T13:05:01;64.50;61.47;67.96;;
46584;Laerm;32309;48.858;8.252;2023-09-18T13:07:12;63.42;60.62;67.59;;
46584;Laerm;32309;48.858;8.252;2023-09-18T13:09:17;63.89;61.28;65.77;;
46584;Laerm;32309;48.858;8.252;2023-09-18T13:11:17;64.09;61.88;68.32;;
46584;Laerm;32309;48.858;8.252;2023-09-18T13:13:19;64.58;61.56;68.34;;
46584;Laerm;32309;48.858;8.252;2023-09-18T13:15:26;64.93;62.25;68.45;;
46584;Laerm;32309;48.858;8.252;2023-09-18T13:17:28;64.00;60.88;65.89;;
46584;Laerm;32309;48.858;8.252;2023-09-18T13:19:28;64.44;62.25;68.05;;
46584;Laerm;32309;48.858;8.252;2023-09-18T13:21:28;63.28;60.64;66.13;;
46584;Laerm;32309;48.858;8.252;2023-09-18T13:23:30;63.22;60.34;68.07;;
46584;Laerm;32309;48.858;8.252;2023-09-18T13:25:33;63.95;60.82;68.27;;
46584;Laerm;32309;48.858;8.252;2023-09-18T13:29:34;63.90;61.15;66.25;;
46584;Laerm;32309;48.858;8.252;2023-09-18T13:31:34;64.13;61.36;68.06;;
46584;Laerm;32309;48.858;8.252;2023-09-18T13:33:38;64.99;61.97;68.42;;
46584;Laerm;32309;48.858;8.252;2023-09-18T13:35:41;63.15;61.30;64.94;;
46584;Laerm;32309;48.858;8.252;2023-09-18T13:39:42;63.98;60.17;66.17;;
46584;Laerm;32309;48.858;8.252;2023-09-18T13:41:43;64.26;61.61;66.02;;
46584;Laerm;32309;48.858;8.252;2023-09-18T13:43:43;63.40;60.86;66.18;;
46584;Laerm;32309;48.858;8.252;2023-09-18T13:45:45;63.98;60.85;66.16;;
46584;Laerm;32309;48.858;8.252;2023-09-18T13:47:46;64.20;62.24;66.13;;
46584;Laerm;32309;48.858;8.252;2023-09-18T13:49:46;64.70;61.98;68.34;;
46584;Laerm;32309;48.858;8.252;2023-09-18T13:53:46;65.01;62.04;68.44;;
46584;Laerm;32309;48.858;8.252;2023-09-18T13:55:48;64.47;61.30;66.35;;
46584;Laerm;32309;48.858;8.252;2023-09-18T13:57:48;65.03;62.41;68.62;;
46584;Laerm;32309;48.858;8.252;2023-09-18T13:59:50;64.51;62.69;66.31;;
46584;Laerm;32309;48.858;8.252;2023-09-18T14:03:52;64.13;62.03;65.97;;
46584;Laerm;32309;48.858;8.252;2023-09-18T14:05:52;64.68;62.18;68.58;;
46584;Laerm;32309;48.858;8.252;2023-09-18T14:07:52;66.14;62.39;68.70;;
46584;Laerm;32309;48.858;8.252;2023-09-18T14:09:57;64.40;62.30;66.16;;
46584;Laerm;32309;48.858;8.252;2023-09-18T14:11:58;64.53;62.64;66.32;;
46584;Laerm;32309;48.858;8.252;2023-09-18T14:13:58;64.53;62.32;66.52;;
46584;Laerm;32309;48.858;8.252;2023-09-18T14:15:59;65.01;62.22;68.49;;
46584;Laerm;32309;48.858;8.252;2023-09-18T14:17:59;64.97;62.36;68.86;;
46584;Laerm;32309;48.858;8.252;2023-09-18T14:20:00;63.86;61.61;65.97;;
46584;Laerm;32309;48.858;8.252;2023-09-18T14:22:00;63.40;60.84;65.18;;
46584;Laerm;32309;48.858;8.252;2023-09-18T14:24:05;63.56;61.00;67.86;;
46584;Laerm;32309;48.858;8.252;2023-09-18T14:26:05;63.65;61.56;66.11;;
46584;Laerm;32309;48.858;8.252;2023-09-18T14:28:06;64.32;61.84;66.41;;
46584;Laerm;32309;48.858;8.252;2023-09-18T14:30:07;64.66;61.24;68.84;;
46584;Laerm;32309;48.858;8.252;2023-09-18T14:32:08;63.69;61.15;67.56;;
46584;Laerm;32309;48.858;8.252;2023-09-18T14:34:08;64.67;62.30;68.45;;
46584;Laerm;32309;48.858;8.252;2023-09-18T14:36:08;64.44;62.49;66.21;;
46584;Laerm;32309;48.858;8.252;2023-09-18T14:38:09;64.76;62.16;68.38;;
46584;Laerm;32309;48.858;8.252;2023-09-18T14:40:10;64.65;62.65;66.45;;
46584;Laerm;32309;48.858;8.252;2023-09-18T14:42:11;64.62;61.37;68.64;;
46584;Laerm;32309;48.858;8.252;2023-09-18T14:46:13;64.49;62.44;66.44;;
46584;Laerm;32309;48.858;8.252;2023-09-18T14:48:13;64.75;61.27;68.46;;
46584;Laerm;32309;48.858;8.252;2023-09-18T14:50:13;64.45;62.48;66.17;;
46584;Laerm;32309;48.858;8.252;2023-09-18T14:52:15;64.14;61.57;66.15;;
46584;Laerm;32309;48.858;8.252;2023-09-18T14:56:17;63.54;61.48;65.21;;
46584;Laerm;32309;48.858;8.252;2023-09-18T14:58:17;64.25;61.75;66.39;;
46584;Laerm;32309;48.858;8.252;2023-09-18T15:00:22;64.58;61.86;68.09;;
46584;Laerm;32309;48.858;8.252;2023-09-18T15:02:22;64.19;61.93;66.08;;
46584;Laerm;32309;48.858;8.252;2023-09-18T15:04:27;64.52;62.88;66.32;;
46584;Laerm;32309;48.858;8.252;2023-09-18T15:06:28;64.50;61.26;66.19;;
46584;Laerm;32309;48.858;8.252;2023-09-18T15:08:29;64.47;62.46;66.62;;
46584;Laerm;32309;48.858;8.252;2023-09-18T15:10:29;64.75;61.76;68.40;;
46584;Laerm;32309;48.858;8.252;2023-09-18T15:12:29;64.32;61.71;67.96;;
46584;Laerm;32309;48.858;8.252;2023-09-18T15:14:29;64.33;61.31;68.43;;
46584;Laerm;32309;48.858;8.252;2023-09-18T15:16:30;65.39;62.21;68.50;;
46584;Laerm;32309;48.858;8.252;2023-09-18T15:18:30;65.00;61.71;68.26;;
46584;Laerm;32309;48.858;8.252;2023-09-18T15:22:31;64.73;62.10;68.49;;
46584;Laerm;32309;48.858;8.252;2023-09-18T15:24:31;65.39;62.47;68.44;;
46584;Laerm;32309;48.858;8.252;2023-09-18T15:26:31;64.65;62.44;66.20;;
46584;Laerm;32309;48.858;8.252;2023-09-18T15:28:32;64.70;62.39;67.50;;
46584;Laerm;32309;48.858;8.252;2023-09-18T15:32:54;63.70;60.56;65.69;;